You are listening to:
ZNY New York Center Sector 27 - Harrisburg, Pennsylvania, United States

KMDT 271756Z 18008G19KT 10SM BKN031 24/19 A2970 RMK AO2 RAE24 SLP056 P0000 60000 T02440189 10250 20217 56012

If stream doesn't start automatically press the play button
If stream stops then reload player then press play